sensor_id;sensor_type;location;lat;lon;timestamp;temperature;humidity
64396;DHT22;50717;53.360;6.290;2022-08-06T00:02:17;13.90;99.90
64396;DHT22;50717;53.360;6.290;2022-08-06T00:04:46;14.00;99.90
64396;DHT22;50717;53.360;6.290;2022-08-06T00:07:12;14.00;99.90
64396;DHT22;50717;53.360;6.290;2022-08-06T00:09:37;13.70;99.90
64396;DHT22;50717;53.360;6.290;2022-08-06T00:12:04;13.90;99.90
64396;DHT22;50717;53.360;6.290;2022-08-06T00:14:31;13.60;99.90
64396;DHT22;50717;53.360;6.290;2022-08-06T00:16:57;14.10;99.90
64396;DHT22;50717;53.360;6.290;2022-08-06T00:19:24;13.80;99.90
64396;DHT22;50717;53.360;6.290;2022-08-06T00:21:50;14.00;99.90
64396;DHT22;50717;53.360;6.290;2022-08-06T00:24:16;13.80;99.90
64396;DHT22;50717;53.360;6.290;2022-08-06T00:26:42;13.70;99.90
64396;DHT22;50717;53.360;6.290;2022-08-06T00:29:07;13.80;99.90
64396;DHT22;50717;53.360;6.290;2022-08-06T00:31:33;13.80;99.90
64396;DHT22;50717;53.360;6.290;2022-08-06T00:33:59;14.00;99.90
64396;DHT22;50717;53.360;6.290;2022-08-06T00:36:30;13.80;99.90
64396;DHT22;50717;53.360;6.290;2022-08-06T00:39:02;14.60;99.90
64396;DHT22;50717;53.360;6.290;2022-08-06T00:41:29;13.90;99.90
64396;DHT22;50717;53.360;6.290;2022-08-06T00:43:56;13.60;99.90
64396;DHT22;50717;53.360;6.290;2022-08-06T00:46:25;13.70;99.90
64396;DHT22;50717;53.360;6.290;2022-08-06T00:48:52;13.80;99.90
64396;DHT22;50717;53.360;6.290;2022-08-06T00:51:18;15.00;99.90
64396;DHT22;50717;53.360;6.290;2022-08-06T00:53:44;13.70;99.90
64396;DHT22;50717;53.360;6.290;2022-08-06T00:56:09;13.70;99.90
64396;DHT22;50717;53.360;6.290;2022-08-06T00:58:35;14.60;99.90
64396;DHT22;50717;53.360;6.290;2022-08-06T01:01:01;13.80;99.90
64396;DHT22;50717;53.360;6.290;2022-08-06T01:03:27;13.70;99.90
64396;DHT22;50717;53.360;6.290;2022-08-06T01:05:52;13.60;99.90
64396;DHT22;50717;53.360;6.290;2022-08-06T01:08:18;13.80;99.90
64396;DHT22;50717;53.360;6.290;2022-08-06T01:10:44;13.60;99.90
64396;DHT22;50717;53.360;6.290;2022-08-06T01:13:10;13.70;99.90
64396;DHT22;50717;53.360;6.290;2022-08-06T01:15:36;13.60;99.90
64396;DHT22;50717;53.360;6.290;2022-08-06T01:18:31;13.90;99.90
64396;DHT22;50717;53.360;6.290;2022-08-06T01:31:41;13.60;99.90
64396;DHT22;50717;53.360;6.290;2022-08-06T01:35:10;13.60;99.90
64396;DHT22;50717;53.360;6.290;2022-08-06T01:39:43;13.30;99.90
64396;DHT22;50717;53.360;6.290;2022-08-06T01:42:11;13.90;99.90
64396;DHT22;50717;53.360;6.290;2022-08-06T01:44:40;13.30;99.90
64396;DHT22;50717;53.360;6.290;2022-08-06T01:47:11;13.50;99.90
64396;DHT22;50717;53.360;6.290;2022-08-06T01:49:39;13.40;99.90
64396;DHT22;50717;53.360;6.290;2022-08-06T01:52:08;13.50;99.90
64396;DHT22;50717;53.360;6.290;2022-08-06T01:54:38;13.00;99.90
64396;DHT22;50717;53.360;6.290;2022-08-06T01:57:05;13.20;99.90
64396;DHT22;50717;53.360;6.290;2022-08-06T01:59:34;13.90;99.90
64396;DHT22;50717;53.360;6.290;2022-08-06T02:02:04;12.60;99.90
64396;DHT22;50717;53.360;6.290;2022-08-06T02:04:35;12.60;99.90
64396;DHT22;50717;53.360;6.290;2022-08-06T02:07:03;12.60;99.90
64396;DHT22;50717;53.360;6.290;2022-08-06T02:09:31;12.40;99.90
64396;DHT22;50717;53.360;6.290;2022-08-06T02:12:06;12.80;99.90
64396;DHT22;50717;53.360;6.290;2022-08-06T02:14:35;12.40;99.90
64396;DHT22;50717;53.360;6.290;2022-08-06T02:17:03;12.30;99.90
64396;DHT22;50717;53.360;6.290;2022-08-06T02:19:31;12.20;99.90
64396;DHT22;50717;53.360;6.290;2022-08-06T02:21:59;12.00;99.90
64396;DHT22;50717;53.360;6.290;2022-08-06T02:24:28;12.50;99.90
64396;DHT22;50717;53.360;6.290;2022-08-06T02:26:56;12.20;99.90
64396;DHT22;50717;53.360;6.290;2022-08-06T02:29:25;12.50;99.90
64396;DHT22;50717;53.360;6.290;2022-08-06T02:31:51;11.90;99.90
64396;DHT22;50717;53.360;6.290;2022-08-06T02:34:19;13.10;99.90
64396;DHT22;50717;53.360;6.290;2022-08-06T02:36:50;12.10;99.90
64396;DHT22;50717;53.360;6.290;2022-08-06T02:39:39;11.80;99.90
64396;DHT22;50717;53.360;6.290;2022-08-06T02:42:12;11.80;99.90
64396;DHT22;50717;53.360;6.290;2022-08-06T02:47:53;12.10;99.90
64396;DHT22;50717;53.360;6.290;2022-08-06T02:50:27;11.90;99.90
64396;DHT22;50717;53.360;6.290;2022-08-06T02:53:09;11.90;99.90
64396;DHT22;50717;53.360;6.290;2022-08-06T02:55:38;11.80;99.90
64396;DHT22;50717;53.360;6.290;2022-08-06T02:58:13;12.10;99.90
64396;DHT22;50717;53.360;6.290;2022-08-06T03:00:42;11.80;99.90
64396;DHT22;50717;53.360;6.290;2022-08-06T03:03:08;12.10;99.90
64396;DHT22;50717;53.360;6.290;2022-08-06T03:05:36;11.90;99.90
64396;DHT22;50717;53.360;6.290;2022-08-06T03:08:04;11.80;99.90
64396;DHT22;50717;53.360;6.290;2022-08-06T03:10:33;12.00;99.90
64396;DHT22;50717;53.360;6.290;2022-08-06T03:13:01;11.70;99.90
64396;DHT22;50717;53.360;6.290;2022-08-06T03:15:28;11.90;99.90
64396;DHT22;50717;53.360;6.290;2022-08-06T03:17:55;11.80;99.90
64396;DHT22;50717;53.360;6.290;2022-08-06T03:20:26;12.10;99.90
64396;DHT22;50717;53.360;6.290;2022-08-06T03:22:54;12.50;99.90
64396;DHT22;50717;53.360;6.290;2022-08-06T03:25:21;11.70;99.90
64396;DHT22;50717;53.360;6.290;2022-08-06T03:27:47;11.80;99.90
64396;DHT22;50717;53.360;6.290;2022-08-06T03:30:15;11.50;99.90
64396;DHT22;50717;53.360;6.290;2022-08-06T03:32:41;11.60;99.90
64396;DHT22;50717;53.360;6.290;2022-08-06T03:35:08;12.10;99.90
64396;DHT22;50717;53.360;6.290;2022-08-06T03:37:35;11.40;99.90
64396;DHT22;50717;53.360;6.290;2022-08-06T03:40:04;11.60;99.90
64396;DHT22;50717;53.360;6.290;2022-08-06T03:42:30;12.00;99.90
64396;DHT22;50717;53.360;6.290;2022-08-06T03:44:56;11.70;99.90
64396;DHT22;50717;53.360;6.290;2022-08-06T03:47:24;11.90;99.90
64396;DHT22;50717;53.360;6.290;2022-08-06T03:50:01;12.40;99.90
64396;DHT22;50717;53.360;6.290;2022-08-06T03:52:31;12.00;99.90
64396;DHT22;50717;53.360;6.290;2022-08-06T03:55:02;12.10;99.90
64396;DHT22;50717;53.360;6.290;2022-08-06T03:57:37;12.40;99.90
64396;DHT22;50717;53.360;6.290;2022-08-06T04:00:04;12.50;99.90
64396;DHT22;50717;53.360;6.290;2022-08-06T04:02:37;12.90;99.90
64396;DHT22;50717;53.360;6.290;2022-08-06T04:05:04;12.90;99.90
64396;DHT22;50717;53.360;6.290;2022-08-06T04:07:32;13.30;99.90
64396;DHT22;50717;53.360;6.290;2022-08-06T04:09:59;12.80;99.90
64396;DHT22;50717;53.360;6.290;2022-08-06T04:12:27;13.20;99.90
64396;DHT22;50717;53.360;6.290;2022-08-06T04:14:54;13.20;99.90
64396;DHT22;50717;53.360;6.290;2022-08-06T04:17:20;13.00;99.90
64396;DHT22;50717;53.360;6.290;2022-08-06T04:19:47;13.10;99.90
64396;DHT22;50717;53.360;6.290;2022-08-06T04:22:13;13.00;99.90
64396;DHT22;50717;53.360;6.290;2022-08-06T04:24:39;13.00;99.90
64396;DHT22;50717;53.360;6.290;2022-08-06T04:27:07;13.20;99.90
64396;DHT22;50717;53.360;6.290;2022-08-06T04:29:35;12.80;99.90
64396;DHT22;50717;53.360;6.290;2022-08-06T04:32:02;13.60;99.90
64396;DHT22;50717;53.360;6.290;2022-08-06T04:34:29;13.00;99.90
64396;DHT22;50717;53.360;6.290;2022-08-06T04:36:58;12.80;99.90
64396;DHT22;50717;53.360;6.290;2022-08-06T04:39:24;12.80;99.90
64396;DHT22;50717;53.360;6.290;2022-08-06T04:41:51;12.70;99.90
64396;DHT22;50717;53.360;6.290;2022-08-06T04:44:17;12.70;99.90
64396;DHT22;50717;53.360;6.290;2022-08-06T04:46:43;12.70;99.90
64396;DHT22;50717;53.360;6.290;2022-08-06T04:49:17;12.50;99.90
64396;DHT22;50717;53.360;6.290;2022-08-06T04:51:47;12.60;99.90
64396;DHT22;50717;53.360;6.290;2022-08-06T04:54:16;12.50;99.90
64396;DHT22;50717;53.360;6.290;2022-08-06T04:56:43;12.40;99.90
64396;DHT22;50717;53.360;6.290;2022-08-06T04:59:09;12.60;99.90
64396;DHT22;50717;53.360;6.290;2022-08-06T05:01:36;13.20;99.90
64396;DHT22;50717;53.360;6.290;2022-08-06T05:04:03;12.60;99.90
64396;DHT22;50717;53.360;6.290;2022-08-06T05:06:48;12.50;99.90
64396;DHT22;50717;53.360;6.290;2022-08-06T05:09:24;12.40;99.90
64396;DHT22;50717;53.360;6.290;2022-08-06T05:12:25;12.60;99.90
64396;DHT22;50717;53.360;6.290;2022-08-06T05:17:30;12.50;99.90
64396;DHT22;50717;53.360;6.290;2022-08-06T05:20:00;12.30;99.90
64396;DHT22;50717;53.360;6.290;2022-08-06T05:22:27;12.20;99.90
64396;DHT22;50717;53.360;6.290;2022-08-06T05:24:54;12.40;99.90
64396;DHT22;50717;53.360;6.290;2022-08-06T05:27:21;12.30;99.90
64396;DHT22;50717;53.360;6.290;2022-08-06T05:29:46;12.60;99.90
64396;DHT22;50717;53.360;6.290;2022-08-06T05:32:12;13.30;99.90
64396;DHT22;50717;53.360;6.290;2022-08-06T05:34:38;12.60;99.90
64396;DHT22;50717;53.360;6.290;2022-08-06T05:37:04;13.20;99.90
64396;DHT22;50717;53.360;6.290;2022-08-06T05:39:30;13.30;99.90
64396;DHT22;50717;53.360;6.290;2022-08-06T05:41:55;13.80;99.90
64396;DHT22;50717;53.360;6.290;2022-08-06T05:44:21;13.60;99.90
64396;DHT22;50717;53.360;6.290;2022-08-06T05:46:52;13.90;99.90
64396;DHT22;50717;53.360;6.290;2022-08-06T05:52:11;13.70;99.90
64396;DHT22;50717;53.360;6.290;2022-08-06T05:57:20;13.90;99.90
64396;DHT22;50717;53.360;6.290;2022-08-06T05:59:54;14.00;99.90
64396;DHT22;50717;53.360;6.290;2022-08-06T06:02:23;14.10;99.90
64396;DHT22;50717;53.360;6.290;2022-08-06T06:04:49;14.10;99.90
64396;DHT22;50717;53.360;6.290;2022-08-06T06:07:15;14.00;99.90
64396;DHT22;50717;53.360;6.290;2022-08-06T06:09:42;14.40;99.90
64396;DHT22;50717;53.360;6.290;2022-08-06T06:12:09;14.20;99.90
64396;DHT22;50717;53.360;6.290;2022-08-06T06:14:40;14.50;99.90
64396;DHT22;50717;53.360;6.290;2022-08-06T06:20:19;14.80;99.90
64396;DHT22;50717;53.360;6.290;2022-08-06T06:23:08;14.70;99.90
64396;DHT22;50717;53.360;6.290;2022-08-06T06:25:42;14.70;99.90
64396;DHT22;50717;53.360;6.290;2022-08-06T06:28:28;14.60;99.90
64396;DHT22;50717;53.360;6.290;2022-08-06T06:39:10;15.30;99.90
64396;DHT22;50717;53.360;6.290;2022-08-06T06:41:47;15.00;99.90
64396;DHT22;50717;53.360;6.290;2022-08-06T06:44:23;15.30;99.90
64396;DHT22;50717;53.360;6.290;2022-08-06T06:47:03;15.40;99.90
64396;DHT22;50717;53.360;6.290;2022-08-06T06:49:40;15.40;99.90
64396;DHT22;50717;53.360;6.290;2022-08-06T06:54:50;15.30;99.90
64396;DHT22;50717;53.360;6.290;2022-08-06T06:57:20;15.50;99.90
64396;DHT22;50717;53.360;6.290;2022-08-06T06:59:51;15.40;99.90
64396;DHT22;50717;53.360;6.290;2022-08-06T07:02:23;16.20;99.90
64396;DHT22;50717;53.360;6.290;2022-08-06T07:04:51;15.90;99.90
64396;DHT22;50717;53.360;6.290;2022-08-06T07:07:18;16.00;99.90
64396;DHT22;50717;53.360;6.290;2022-08-06T07:09:44;16.30;99.90
64396;DHT22;50717;53.360;6.290;2022-08-06T07:12:13;16.10;99.90
64396;DHT22;50717;53.360;6.290;2022-08-06T07:14:40;16.10;99.90
64396;DHT22;50717;53.360;6.290;2022-08-06T07:17:07;16.10;99.90
64396;DHT22;50717;53.360;6.290;2022-08-06T07:19:34;16.20;99.90
64396;DHT22;50717;53.360;6.290;2022-08-06T07:22:01;16.20;99.90
64396;DHT22;50717;53.360;6.290;2022-08-06T07:24:28;16.10;99.90
64396;DHT22;50717;53.360;6.290;2022-08-06T07:26:57;16.30;99.90
64396;DHT22;50717;53.360;6.290;2022-08-06T07:29:24;16.40;99.90
64396;DHT22;50717;53.360;6.290;2022-08-06T07:31:51;16.60;99.90
64396;DHT22;50717;53.360;6.290;2022-08-06T07:34:18;16.60;99.90
64396;DHT22;50717;53.360;6.290;2022-08-06T07:36:51;16.70;99.90
64396;DHT22;50717;53.360;6.290;2022-08-06T07:39:28;16.60;99.90
64396;DHT22;50717;53.360;6.290;2022-08-06T07:41:55;16.50;99.90
64396;DHT22;50717;53.360;6.290;2022-08-06T07:44:22;16.60;99.90
64396;DHT22;50717;53.360;6.290;2022-08-06T07:46:52;16.30;99.90
64396;DHT22;50717;53.360;6.290;2022-08-06T07:49:23;16.40;99.90
64396;DHT22;50717;53.360;6.290;2022-08-06T07:51:50;16.90;99.90
64396;DHT22;50717;53.360;6.290;2022-08-06T07:54:18;16.90;99.90
64396;DHT22;50717;53.360;6.290;2022-08-06T07:56:45;17.40;99.90
64396;DHT22;50717;53.360;6.290;2022-08-06T07:59:11;17.30;99.90
64396;DHT22;50717;53.360;6.290;2022-08-06T08:01:38;17.70;99.90
64396;DHT22;50717;53.360;6.290;2022-08-06T08:04:06;17.80;99.90
64396;DHT22;50717;53.360;6.290;2022-08-06T08:06:54;17.80;99.90
64396;DHT22;50717;53.360;6.290;2022-08-06T08:09:23;18.10;99.90
64396;DHT22;50717;53.360;6.290;2022-08-06T08:11:50;18.00;99.90
64396;DHT22;50717;53.360;6.290;2022-08-06T08:14:20;18.10;99.90
64396;DHT22;50717;53.360;6.290;2022-08-06T08:16:46;18.20;99.90
64396;DHT22;50717;53.360;6.290;2022-08-06T08:19:24;18.00;99.90
64396;DHT22;50717;53.360;6.290;2022-08-06T08:21:53;18.00;99.90
64396;DHT22;50717;53.360;6.290;2022-08-06T08:24:23;18.10;99.90
64396;DHT22;50717;53.360;6.290;2022-08-06T08:26:49;18.20;99.90
64396;DHT22;50717;53.360;6.290;2022-08-06T08:29:15;18.40;99.90
64396;DHT22;50717;53.360;6.290;2022-08-06T08:31:40;18.40;99.90
64396;DHT22;50717;53.360;6.290;2022-08-06T08:34:07;18.40;99.90
64396;DHT22;50717;53.360;6.290;2022-08-06T08:36:33;18.40;99.90
64396;DHT22;50717;53.360;6.290;2022-08-06T08:38:59;18.20;99.90
64396;DHT22;50717;53.360;6.290;2022-08-06T08:41:34;18.70;99.90
64396;DHT22;50717;53.360;6.290;2022-08-06T08:44:06;18.30;99.90
64396;DHT22;50717;53.360;6.290;2022-08-06T08:46:42;18.30;99.90
64396;DHT22;50717;53.360;6.290;2022-08-06T08:49:18;18.60;99.90
64396;DHT22;50717;53.360;6.290;2022-08-06T08:51:45;18.40;99.90
64396;DHT22;50717;53.360;6.290;2022-08-06T08:54:16;18.40;99.90
64396;DHT22;50717;53.360;6.290;2022-08-06T08:56:44;18.70;99.90
64396;DHT22;50717;53.360;6.290;2022-08-06T08:59:10;18.70;99.90
64396;DHT22;50717;53.360;6.290;2022-08-06T09:01:36;18.70;99.90
64396;DHT22;50717;53.360;6.290;2022-08-06T09:04:03;18.70;99.90
64396;DHT22;50717;53.360;6.290;2022-08-06T09:06:30;18.50;99.90
64396;DHT22;50717;53.360;6.290;2022-08-06T09:09:00;18.70;99.90
64396;DHT22;50717;53.360;6.290;2022-08-06T09:11:34;18.70;99.90
64396;DHT22;50717;53.360;6.290;2022-08-06T09:14:04;18.50;99.90
64396;DHT22;50717;53.360;6.290;2022-08-06T09:16:35;18.60;99.90
64396;DHT22;50717;53.360;6.290;2022-08-06T09:19:04;18.90;99.90
64396;DHT22;50717;53.360;6.290;2022-08-06T09:21:31;18.70;99.90
64396;DHT22;50717;53.360;6.290;2022-08-06T09:23:57;19.20;99.90
64396;DHT22;50717;53.360;6.290;2022-08-06T09:26:23;19.50;99.90
64396;DHT22;50717;53.360;6.290;2022-08-06T09:28:49;19.30;99.90
64396;DHT22;50717;53.360;6.290;2022-08-06T09:31:17;19.30;99.90
64396;DHT22;50717;53.360;6.290;2022-08-06T09:34:04;18.80;99.90
64396;DHT22;50717;53.360;6.290;2022-08-06T09:36:44;19.10;99.90
64396;DHT22;50717;53.360;6.290;2022-08-06T09:39:11;19.10;99.90
64396;DHT22;50717;53.360;6.290;2022-08-06T09:41:47;19.70;99.90
64396;DHT22;50717;53.360;6.290;2022-08-06T09:44:13;19.20;99.90
64396;DHT22;50717;53.360;6.290;2022-08-06T09:49:13;19.80;99.90
64396;DHT22;50717;53.360;6.290;2022-08-06T09:51:39;19.90;99.90
64396;DHT22;50717;53.360;6.290;2022-08-06T09:54:10;19.80;99.90
64396;DHT22;50717;53.360;6.290;2022-08-06T09:56:38;20.00;99.90
64396;DHT22;50717;53.360;6.290;2022-08-06T09:59:07;19.80;99.90
64396;DHT22;50717;53.360;6.290;2022-08-06T10:01:42;19.90;99.90
64396;DHT22;50717;53.360;6.290;2022-08-06T10:04:28;19.80;99.90
64396;DHT22;50717;53.360;6.290;2022-08-06T10:06:57;20.40;99.90
64396;DHT22;50717;53.360;6.290;2022-08-06T10:09:24;20.10;99.90
64396;DHT22;50717;53.360;6.290;2022-08-06T10:11:51;20.50;99.90
64396;DHT22;50717;53.360;6.290;2022-08-06T10:14:35;20.40;99.90
64396;DHT22;50717;53.360;6.290;2022-08-06T10:19:40;20.10;99.90
64396;DHT22;50717;53.360;6.290;2022-08-06T10:22:11;19.80;99.90
64396;DHT22;50717;53.360;6.290;2022-08-06T10:24:40;20.00;99.90
64396;DHT22;50717;53.360;6.290;2022-08-06T10:27:08;19.90;99.90
64396;DHT22;50717;53.360;6.290;2022-08-06T10:32:09;20.30;99.90
64396;DHT22;50717;53.360;6.290;2022-08-06T10:34:37;20.70;99.90
64396;DHT22;50717;53.360;6.290;2022-08-06T10:37:06;20.30;99.90
64396;DHT22;50717;53.360;6.290;2022-08-06T10:39:35;20.50;99.90
64396;DHT22;50717;53.360;6.290;2022-08-06T10:42:04;20.50;99.90
64396;DHT22;50717;53.360;6.290;2022-08-06T10:44:31;20.70;99.90
64396;DHT22;50717;53.360;6.290;2022-08-06T10:46:58;20.90;99.90
64396;DHT22;50717;53.360;6.290;2022-08-06T10:49:24;20.50;99.90
64396;DHT22;50717;53.360;6.290;2022-08-06T10:51:52;20.90;99.90
64396;DHT22;50717;53.360;6.290;2022-08-06T10:54:19;20.70;99.90
64396;DHT22;50717;53.360;6.290;2022-08-06T10:56:48;20.50;99.90
64396;DHT22;50717;53.360;6.290;2022-08-06T10:59:15;20.40;99.90
64396;DHT22;50717;53.360;6.290;2022-08-06T11:02:08;20.30;99.90
64396;DHT22;50717;53.360;6.290;2022-08-06T11:04:48;19.80;99.90
64396;DHT22;50717;53.360;6.290;2022-08-06T11:13:29;20.40;99.90
64396;DHT22;50717;53.360;6.290;2022-08-06T11:15:56;19.80;99.90
64396;DHT22;50717;53.360;6.290;2022-08-06T11:18:22;20.40;99.90
64396;DHT22;50717;53.360;6.290;2022-08-06T11:20:49;21.20;99.90
64396;DHT22;50717;53.360;6.290;2022-08-06T11:25:49;20.90;99.90
64396;DHT22;50717;53.360;6.290;2022-08-06T11:30:59;21.00;99.90
64396;DHT22;50717;53.360;6.290;2022-08-06T11:36:10;20.90;99.90
64396;DHT22;50717;53.360;6.290;2022-08-06T11:41:28;21.10;99.90
64396;DHT22;50717;53.360;6.290;2022-08-06T11:46:25;21.20;99.90
64396;DHT22;50717;53.360;6.290;2022-08-06T12:01:57;21.40;99.90
64396;DHT22;50717;53.360;6.290;2022-08-06T12:10:07;21.70;99.90
64396;DHT22;50717;53.360;6.290;2022-08-06T12:20:07;21.80;99.90
64396;DHT22;50717;53.360;6.290;2022-08-06T12:22:35;21.50;99.90
64396;DHT22;50717;53.360;6.290;2022-08-06T12:25:05;21.50;99.90
64396;DHT22;50717;53.360;6.290;2022-08-06T12:27:33;21.50;99.90
64396;DHT22;50717;53.360;6.290;2022-08-06T12:29:59;21.50;99.90
64396;DHT22;50717;53.360;6.290;2022-08-06T12:34:55;21.70;99.90
64396;DHT22;50717;53.360;6.290;2022-08-06T12:37:39;21.40;99.90
64396;DHT22;50717;53.360;6.290;2022-08-06T12:40:10;21.50;99.90
64396;DHT22;50717;53.360;6.290;2022-08-06T12:45:29;21.40;99.90
64396;DHT22;50717;53.360;6.290;2022-08-06T12:48:00;21.50;99.90
64396;DHT22;50717;53.360;6.290;2022-08-06T12:50:26;21.80;99.90
64396;DHT22;50717;53.360;6.290;2022-08-06T12:53:13;21.50;99.90
64396;DHT22;50717;53.360;6.290;2022-08-06T12:55:44;21.90;99.90
64396;DHT22;50717;53.360;6.290;2022-08-06T12:58:11;21.80;99.90
64396;DHT22;50717;53.360;6.290;2022-08-06T13:00:40;22.10;99.90
64396;DHT22;50717;53.360;6.290;2022-08-06T13:03:08;21.90;99.90
64396;DHT22;50717;53.360;6.290;2022-08-06T13:05:35;21.70;99.90
64396;DHT22;50717;53.360;6.290;2022-08-06T13:08:01;22.10;99.90
64396;DHT22;50717;53.360;6.290;2022-08-06T13:10:27;21.70;99.90
64396;DHT22;50717;53.360;6.290;2022-08-06T13:13:00;21.80;99.90
64396;DHT22;50717;53.360;6.290;2022-08-06T13:15:27;21.70;99.90
64396;DHT22;50717;53.360;6.290;2022-08-06T13:20:48;21.60;99.90
64396;DHT22;50717;53.360;6.290;2022-08-06T13:23:31;21.80;99.90
64396;DHT22;50717;53.360;6.290;2022-08-06T13:25:58;21.90;99.90
64396;DHT22;50717;53.360;6.290;2022-08-06T13:28:24;22.30;99.90
64396;DHT22;50717;53.360;6.290;2022-08-06T13:30:51;21.90;99.90
64396;DHT22;50717;53.360;6.290;2022-08-06T13:33:24;22.30;99.90
64396;DHT22;50717;53.360;6.290;2022-08-06T13:36:05;22.70;99.90
64396;DHT22;50717;53.360;6.290;2022-08-06T13:38:33;22.10;99.90
64396;DHT22;50717;53.360;6.290;2022-08-06T13:40:59;22.10;99.90
64396;DHT22;50717;53.360;6.290;2022-08-06T13:43:40;21.70;99.90
64396;DHT22;50717;53.360;6.290;2022-08-06T13:46:16;21.60;99.90
64396;DHT22;50717;53.360;6.290;2022-08-06T13:48:43;21.80;99.90
64396;DHT22;50717;53.360;6.290;2022-08-06T13:51:13;21.80;99.90
64396;DHT22;50717;53.360;6.290;2022-08-06T13:53:39;22.30;99.90
64396;DHT22;50717;53.360;6.290;2022-08-06T13:56:04;21.70;99.90
64396;DHT22;50717;53.360;6.290;2022-08-06T13:58:30;22.00;99.90
64396;DHT22;50717;53.360;6.290;2022-08-06T14:00:57;22.20;99.90
64396;DHT22;50717;53.360;6.290;2022-08-06T14:03:23;22.40;99.90
64396;DHT22;50717;53.360;6.290;2022-08-06T14:05:50;22.10;99.90
64396;DHT22;50717;53.360;6.290;2022-08-06T14:08:16;22.30;99.90
64396;DHT22;50717;53.360;6.290;2022-08-06T14:10:42;22.60;99.90
64396;DHT22;50717;53.360;6.290;2022-08-06T14:13:08;23.10;99.90
64396;DHT22;50717;53.360;6.290;2022-08-06T14:15:47;23.20;99.90
64396;DHT22;50717;53.360;6.290;2022-08-06T14:18:15;23.20;99.90
64396;DHT22;50717;53.360;6.290;2022-08-06T14:20:41;23.50;99.90
64396;DHT22;50717;53.360;6.290;2022-08-06T14:23:06;23.90;99.90
64396;DHT22;50717;53.360;6.290;2022-08-06T14:25:32;23.30;99.90
64396;DHT22;50717;53.360;6.290;2022-08-06T14:27:58;23.60;99.90
64396;DHT22;50717;53.360;6.290;2022-08-06T14:30:24;23.50;99.90
64396;DHT22;50717;53.360;6.290;2022-08-06T14:32:50;24.00;99.90
64396;DHT22;50717;53.360;6.290;2022-08-06T14:35:17;23.90;99.90
64396;DHT22;50717;53.360;6.290;2022-08-06T14:37:43;23.40;99.90
64396;DHT22;50717;53.360;6.290;2022-08-06T14:40:10;23.60;99.90
64396;DHT22;50717;53.360;6.290;2022-08-06T14:42:36;23.90;99.90
64396;DHT22;50717;53.360;6.290;2022-08-06T14:45:20;24.10;99.90
64396;DHT22;50717;53.360;6.290;2022-08-06T14:47:46;24.20;99.90
64396;DHT22;50717;53.360;6.290;2022-08-06T14:50:12;24.30;99.90
64396;DHT22;50717;53.360;6.290;2022-08-06T14:52:38;23.50;99.90
64396;DHT22;50717;53.360;6.290;2022-08-06T14:55:07;23.60;99.90
64396;DHT22;50717;53.360;6.290;2022-08-06T14:57:33;23.90;99.90
64396;DHT22;50717;53.360;6.290;2022-08-06T15:00:01;24.20;99.90
64396;DHT22;50717;53.360;6.290;2022-08-06T15:02:26;24.30;99.90
64396;DHT22;50717;53.360;6.290;2022-08-06T15:04:53;24.70;99.60
64396;DHT22;50717;53.360;6.290;2022-08-06T15:07:20;24.40;99.20
64396;DHT22;50717;53.360;6.290;2022-08-06T15:09:46;24.40;99.30
64396;DHT22;50717;53.360;6.290;2022-08-06T15:12:12;24.70;99.50
64396;DHT22;50717;53.360;6.290;2022-08-06T15:14:37;21.40;98.10
64396;DHT22;50717;53.360;6.290;2022-08-06T15:17:03;24.30;99.20
64396;DHT22;50717;53.360;6.290;2022-08-06T15:19:29;24.50;99.00
64396;DHT22;50717;53.360;6.290;2022-08-06T15:21:54;24.40;99.10
64396;DHT22;50717;53.360;6.290;2022-08-06T15:24:20;25.10;98.70
64396;DHT22;50717;53.360;6.290;2022-08-06T15:26:46;24.70;97.60
64396;DHT22;50717;53.360;6.290;2022-08-06T15:29:12;24.40;97.90
64396;DHT22;50717;53.360;6.290;2022-08-06T15:31:38;24.00;97.80
64396;DHT22;50717;53.360;6.290;2022-08-06T15:34:04;24.90;97.80
64396;DHT22;50717;53.360;6.290;2022-08-06T15:36:31;25.10;97.20
64396;DHT22;50717;53.360;6.290;2022-08-06T15:38:57;25.40;96.40
64396;DHT22;50717;53.360;6.290;2022-08-06T15:41:22;25.70;96.20
64396;DHT22;50717;53.360;6.290;2022-08-06T15:43:52;26.00;96.70
64396;DHT22;50717;53.360;6.290;2022-08-06T15:46:18;25.90;96.80
64396;DHT22;50717;53.360;6.290;2022-08-06T15:48:44;25.00;96.50
64396;DHT22;50717;53.360;6.290;2022-08-06T15:51:10;25.80;96.20
64396;DHT22;50717;53.360;6.290;2022-08-06T15:53:36;26.10;95.70
64396;DHT22;50717;53.360;6.290;2022-08-06T15:56:02;25.90;94.90
64396;DHT22;50717;53.360;6.290;2022-08-06T15:58:28;26.00;95.00
64396;DHT22;50717;53.360;6.290;2022-08-06T16:00:53;25.70;94.60
64396;DHT22;50717;53.360;6.290;2022-08-06T16:03:19;26.20;94.90
64396;DHT22;50717;53.360;6.290;2022-08-06T16:05:45;24.90;94.20
64396;DHT22;50717;53.360;6.290;2022-08-06T16:08:12;25.20;94.70
64396;DHT22;50717;53.360;6.290;2022-08-06T16:10:46;24.90;94.70
64396;DHT22;50717;53.360;6.290;2022-08-06T16:13:13;25.30;95.10
64396;DHT22;50717;53.360;6.290;2022-08-06T16:15:50;24.90;95.50
64396;DHT22;50717;53.360;6.290;2022-08-06T16:18:17;24.90;96.10
64396;DHT22;50717;53.360;6.290;2022-08-06T16:20:44;23.80;96.80
64396;DHT22;50717;53.360;6.290;2022-08-06T16:23:11;23.50;97.50
64396;DHT22;50717;53.360;6.290;2022-08-06T16:25:36;23.10;98.30
64396;DHT22;50717;53.360;6.290;2022-08-06T16:28:03;22.70;98.80
64396;DHT22;50717;53.360;6.290;2022-08-06T16:30:29;22.00;99.20
64396;DHT22;50717;53.360;6.290;2022-08-06T16:32:54;21.70;99.80
64396;DHT22;50717;53.360;6.290;2022-08-06T16:35:21;21.30;99.80
64396;DHT22;50717;53.360;6.290;2022-08-06T16:37:49;21.10;99.90
64396;DHT22;50717;53.360;6.290;2022-08-06T16:40:15;21.10;99.90
64396;DHT22;50717;53.360;6.290;2022-08-06T16:42:40;21.10;99.90
64396;DHT22;50717;53.360;6.290;2022-08-06T16:45:06;21.10;99.90
64396;DHT22;50717;53.360;6.290;2022-08-06T16:47:32;20.90;99.90
64396;DHT22;50717;53.360;6.290;2022-08-06T16:49:58;20.80;99.90
64396;DHT22;50717;53.360;6.290;2022-08-06T16:52:24;20.50;99.90
64396;DHT22;50717;53.360;6.290;2022-08-06T16:54:50;20.70;99.90
64396;DHT22;50717;53.360;6.290;2022-08-06T16:57:15;20.70;99.90
64396;DHT22;50717;53.360;6.290;2022-08-06T16:59:41;20.40;99.90
64396;DHT22;50717;53.360;6.290;2022-08-06T17:02:07;20.30;99.90
64396;DHT22;50717;53.360;6.290;2022-08-06T17:04:52;20.40;99.90
64396;DHT22;50717;53.360;6.290;2022-08-06T17:07:18;20.40;99.90
64396;DHT22;50717;53.360;6.290;2022-08-06T17:09:43;20.50;99.90
64396;DHT22;50717;53.360;6.290;2022-08-06T17:12:09;20.40;99.90
64396;DHT22;50717;53.360;6.290;2022-08-06T17:14:35;20.10;99.90
64396;DHT22;50717;53.360;6.290;2022-08-06T17:17:03;20.30;99.90
64396;DHT22;50717;53.360;6.290;2022-08-06T17:19:30;20.20;99.90
64396;DHT22;50717;53.360;6.290;2022-08-06T17:21:56;20.10;99.90